KBTL/BTL METAR and TAF weather

Enter ICAO airport designator
Station Type Date Time Source
KBTL METAR 2023/01/29 18:53 UTC NOAA

KBTL 291853Z 35006KT 10SM OVC014 M03/M07 A3013 RMK AO2 SLP216 T10281067 $


Station Type Date Time Source
KBTL Decoded METAR 2023/01/29 18:53 UTC NOAA

W.K.KELLOGG REGIONAL AIRPORT, MI, United States (KBTL) 42-18N 085-15W 290M
Jan 29, 2023 - 01:53 PM EST / 2023.01.29 1853 UTC
Wind: from the N (350 degrees) at 7 MPH (6 KT):0
Visibility: 10 mile(s):0
Sky conditions: overcast
Temperature: 27.0 F (-2.8 C)
Windchill: 19 F (-7 C):1
Dew Point: 19.9 F (-6.7 C)
Relative Humidity: 74%
Pressure (altimeter): 30.13 in. Hg (1020 hPa)
ob: KBTL 291853Z 35006KT 10SM OVC014 M03/M07 A3013 RMK AO2 SLP216 T10281067
cycle: 19

Station Type Date Time Source
KBTL TAF 2023/01/29 18:36 UTC NOAA

TAF KBTL 291733Z 2918/3018 35009KT P6SM OVC011
FM300600 32004KT P6SM VCSH BKN013
FM301500 30010KT P6SM VCSH OVC018

Example: see airport list